Time;durP1;ratioP1;P1;durP2;ratioP2;P2;SDS_P1;SDS_P2;PMS_P1;PMS_P2;Temp;Humidity;BMP_temperature;BMP_pressure;BME280_temperature;BME280_humidity;BME280_pressure;Samples;Min_cycle;Max_cycle;Signal;HPM_P1;HPM_P2
2023/01/30 00:01:05;;;;;;;13.20;10.18;;;4.50;99.90;;;;;;5050974;28;20200;-47
2023/01/30 00:03:34;;;;;;;13.43;10.88;;;4.40;99.90;;;;;;5050844;28;20214;-47
2023/01/30 00:06:00;;;;;;;13.93;10.93;;;4.30;99.90;;;;;;5051024;28;20616;-47
2023/01/30 00:08:27;;;;;;;13.27;10.35;;;4.30;99.90;;;;;;5050635;28;20200;-48
2023/01/30 00:10:53;;;;;;;17.42;11.27;;;3.80;99.90;;;;;;5050953;28;20581;-48
2023/01/30 00:13:20;;;;;;;13.85;10.68;;;4.20;99.90;;;;;;5050791;28;20223;-48
2023/01/30 00:15:48;;;;;;;13.55;10.40;;;4.30;99.90;;;;;;5050897;28;20202;-47
2023/01/30 00:18:14;;;;;;;13.23;10.80;;;4.40;99.90;;;;;;5050282;28;20303;-47
2023/01/30 00:20:42;;;;;;;14.75;10.98;;;4.30;99.90;;;;;;5050782;28;20661;-48
2023/01/30 00:23:09;;;;;;;14.43;12.30;;;4.30;99.90;;;;;;5050737;28;20243;-48
2023/01/30 00:25:35;;;;;;;14.32;11.40;;;4.30;99.90;;;;;;5050838;28;20200;-47
2023/01/30 00:28:02;;;;;;;14.75;12.05;;;4.20;99.90;;;;;;5050821;28;20200;-47
2023/01/30 00:30:30;;;;;;;16.30;11.68;;;4.30;99.90;;;;;;5050737;28;20216;-47
2023/01/30 00:32:59;;;;;;;14.38;11.82;;;4.30;99.90;;;;;;5050494;28;20212;-48
2023/01/30 00:35:28;;;;;;;16.73;12.27;;;3.80;99.90;;;;;;5050733;28;20200;-48
2023/01/30 00:37:57;;;;;;;14.48;11.90;;;4.40;99.90;;;;;;5034581;28;20258;-47
2023/01/30 00:40:25;;;;;;;14.77;11.52;;;4.90;99.90;;;;;;5054015;28;20303;-48
2023/01/30 00:48:24;;;;;;;14.65;11.60;;;3.60;99.90;;;;;;5036333;28;20207;-48
2023/01/30 00:50:51;;;;;;;17.88;12.85;;;4.30;99.90;;;;;;5036242;28;20200;-48
2023/01/30 00:53:22;;;;;;;16.38;13.20;;;4.20;99.90;;;;;;5036040;28;20250;-48
2023/01/30 00:55:51;;;;;;;16.40;11.90;;;4.30;99.90;;;;;;5036033;28;20200;-47
2023/01/30 00:58:18;;;;;;;16.33;11.40;;;4.30;99.90;;;;;;5053695;28;20191;-47
2023/01/30 01:00:45;;;;;;;16.60;13.55;;;4.30;99.90;;;;;;5054066;28;20200;-48
2023/01/30 01:03:12;;;;;;;15.85;13.05;;;4.20;99.90;;;;;;5036031;28;20215;-48
2023/01/30 01:05:39;;;;;;;14.07;11.90;;;4.10;99.90;;;;;;5053995;28;20586;-47
2023/01/30 01:08:06;;;;;;;16.73;12.18;;;4.00;99.90;;;;;;5036103;28;20199;-48
2023/01/30 01:10:34;;;;;;;20.52;13.30;;;4.30;99.90;;;;;;5054155;28;20200;-47
2023/01/30 01:13:01;;;;;;;18.17;13.95;;;4.30;99.90;;;;;;5053810;28;20222;-52
2023/01/30 01:15:27;;;;;;;15.70;12.38;;;4.30;99.90;;;;;;5054120;28;20609;-48
2023/01/30 01:17:54;;;;;;;18.42;13.55;;;4.30;99.90;;;;;;5054134;28;20207;-47
2023/01/30 01:20:21;;;;;;;20.05;14.57;;;4.30;99.90;;;;;;5035649;28;20299;-47
2023/01/30 01:22:52;;;;;;;21.60;13.00;;;4.20;99.90;;;;;;5054122;28;20723;-52
2023/01/30 01:25:20;;;;;;;18.17;13.13;;;4.40;99.90;;;;;;5053462;28;20239;-48
2023/01/30 01:27:48;;;;;;;16.58;13.02;;;4.10;99.90;;;;;;5036212;28;20207;-48
2023/01/30 01:30:17;;;;;;;17.00;13.48;;;4.30;99.90;;;;;;5053399;28;20188;-48
2023/01/30 01:32:44;;;;;;;17.48;12.95;;;4.10;99.90;;;;;;5053571;28;20211;-47
2023/01/30 01:35:11;;;;;;;21.10;13.85;;;4.00;99.90;;;;;;5053254;28;20230;-48
2023/01/30 01:37:38;;;;;;;16.80;13.82;;;4.00;99.90;;;;;;5035340;28;20207;-48
2023/01/30 01:42:52;;;;;;;20.88;12.85;;;4.00;99.90;;;;;;5053273;28;20238;-47
2023/01/30 01:45:21;;;;;;;25.63;14.07;;;3.90;99.90;;;;;;5053451;28;20219;-47
2023/01/30 01:47:59;;;;;;;18.00;14.48;;;4.70;99.90;;;;;;5035454;28;20200;-48
2023/01/30 01:50:30;;;;;;;20.02;13.77;;;4.00;99.90;;;;;;5035579;28;20648;-48
2023/01/30 01:53:00;;;;;;;20.70;14.68;;;4.30;99.90;;;;;;5053520;28;20212;-47
2023/01/30 01:55:27;;;;;;;16.38;13.35;;;4.40;99.90;;;;;;5053307;28;20231;-48
2023/01/30 01:57:59;;;;;;;18.35;13.50;;;4.20;99.90;;;;;;5035566;28;20210;-49
2023/01/30 02:00:26;;;;;;;17.38;13.60;;;4.00;99.90;;;;;;5034758;28;20211;-47
2023/01/30 02:02:57;;;;;;;19.30;13.18;;;4.30;99.90;;;;;;5053064;28;20216;-48
2023/01/30 02:05:28;;;;;;;18.38;13.65;;;4.30;99.90;;;;;;5053024;28;20220;-47
2023/01/30 02:08:02;;;;;;;17.92;14.30;;;4.20;99.90;;;;;;5034778;28;20582;-47
2023/01/30 02:10:36;;;;;;;22.05;15.15;;;4.20;99.90;;;;;;5034513;28;20582;-48
2023/01/30 02:13:04;;;;;;;19.13;14.98;;;4.30;99.90;;;;;;5034564;28;20227;-48
2023/01/30 02:15:31;;;;;;;17.13;14.00;;;4.10;99.90;;;;;;5052453;28;20223;-46
2023/01/30 02:17:58;;;;;;;21.50;15.45;;;4.10;99.90;;;;;;5052414;28;20680;-48
2023/01/30 02:20:33;;;;;;;20.77;15.38;;;4.00;99.90;;;;;;5034028;28;20204;-48
2023/01/30 02:23:26;;;;;;;18.30;14.55;;;3.70;99.90;;;;;;5034323;28;20251;-48
2023/01/30 02:26:17;;;;;;;21.15;15.50;;;4.10;99.90;;;;;;5034512;28;20195;-48
2023/01/30 02:29:03;;;;;;;20.95;15.32;;;4.10;99.90;;;;;;5034035;28;20303;-48
2023/01/30 02:31:40;;;;;;;21.95;15.43;;;4.10;99.90;;;;;;5034304;28;20211;-48
2023/01/30 02:34:30;;;;;;;26.13;15.27;;;3.90;99.90;;;;;;5052011;28;20219;-47
2023/01/30 02:37:06;;;;;;;23.95;16.33;;;4.10;99.90;;;;;;5052294;28;20200;-46
2023/01/30 02:39:44;;;;;;;22.27;15.77;;;3.90;99.90;;;;;;5034024;28;20566;-47
2023/01/30 02:42:19;;;;;;;22.45;16.25;;;3.90;99.90;;;;;;5033913;28;20223;-47
2023/01/30 02:44:55;;;;;;;26.67;17.13;;;4.00;99.90;;;;;;5033984;28;20195;-48
2023/01/30 02:47:29;;;;;;;22.40;17.05;;;4.20;99.90;;;;;;5034034;28;20299;-47
2023/01/30 02:50:00;;;;;;;22.13;16.55;;;4.10;99.90;;;;;;5033765;28;20628;-47
2023/01/30 02:52:29;;;;;;;21.50;16.23;;;4.00;99.90;;;;;;5033896;28;20279;-48
2023/01/30 02:54:55;;;;;;;20.80;16.52;;;4.20;99.90;;;;;;5033830;28;20287;-47
2023/01/30 02:57:25;;;;;;;21.58;15.68;;;4.40;99.90;;;;;;5033888;28;20306;-47
2023/01/30 02:59:59;;;;;;;24.67;16.30;;;4.10;99.90;;;;;;5033081;28;20669;-47
2023/01/30 03:02:49;;;;;;;26.45;17.85;;;4.10;99.90;;;;;;5033774;28;20228;-47
2023/01/30 03:05:43;;;;;;;23.50;16.38;;;4.00;99.90;;;;;;5033724;28;20222;-48
2023/01/30 03:08:20;;;;;;;19.73;15.68;;;3.90;99.90;;;;;;5025763;28;20204;-47
2023/01/30 03:10:54;;;;;;;22.63;16.52;;;4.00;99.90;;;;;;5033701;28;20207;-47
2023/01/30 03:13:29;;;;;;;20.50;15.77;;;3.90;99.90;;;;;;5033535;28;20227;-46
2023/01/30 03:16:00;;;;;;;23.65;17.75;;;4.10;99.90;;;;;;5033445;28;20230;-47
2023/01/30 03:18:29;;;;;;;23.27;17.13;;;3.80;99.90;;;;;;5051179;28;20196;-47
2023/01/30 03:20:56;;;;;;;24.60;16.90;;;4.00;99.90;;;;;;5033439;28;20293;-47
2023/01/30 03:23:22;;;;;;;23.17;16.02;;;3.90;99.90;;;;;;5033336;28;20239;-47
2023/01/30 03:25:49;;;;;;;24.98;17.40;;;3.90;99.90;;;;;;5051318;28;20192;-47
2023/01/30 03:28:19;;;;;;;27.27;16.88;;;3.90;99.90;;;;;;5051068;28;20202;-47
2023/01/30 03:30:45;;;;;;;25.52;17.13;;;4.00;99.90;;;;;;5033434;28;20208;-48
2023/01/30 03:33:13;;;;;;;18.33;14.55;;;3.90;99.90;;;;;;5033190;28;20689;-48
2023/01/30 03:35:47;;;;;;;19.60;15.20;;;3.90;99.90;;;;;;5033334;28;20228;-48
2023/01/30 03:38:14;;;;;;;21.42;15.85;;;4.10;99.90;;;;;;5032867;28;20298;-48
2023/01/30 03:40:41;;;;;;;25.38;16.63;;;4.10;99.90;;;;;;5033261;28;20204;-48
2023/01/30 03:43:08;;;;;;;20.98;15.48;;;4.00;99.90;;;;;;5033067;28;20235;-48
2023/01/30 03:45:36;;;;;;;20.83;16.35;;;3.60;99.90;;;;;;5033347;28;20255;-48
2023/01/30 03:48:03;;;;;;;23.27;15.70;;;4.20;99.90;;;;;;5051080;28;20203;-48
2023/01/30 03:50:30;;;;;;;25.00;18.02;;;4.00;99.90;;;;;;5033243;28;20235;-48
2023/01/30 03:52:58;;;;;;;22.80;16.48;;;4.30;99.90;;;;;;5033491;28;20270;-47
2023/01/30 03:55:25;;;;;;;20.20;14.95;;;4.30;99.90;;;;;;5033108;28;20233;-47
2023/01/30 03:57:55;;;;;;;24.10;17.23;;;4.20;99.90;;;;;;5033190;28;20672;-47
2023/01/30 04:00:22;;;;;;;20.92;15.82;;;4.20;99.90;;;;;;5032902;28;20229;-46
2023/01/30 04:02:50;;;;;;;22.48;15.23;;;3.90;99.90;;;;;;5051136;28;20282;-48
2023/01/30 04:05:18;;;;;;;25.35;16.70;;;4.20;99.90;;;;;;5033427;28;20202;-48
2023/01/30 04:07:50;;;;;;;20.45;15.40;;;4.20;99.90;;;;;;5033247;28;20291;-48
2023/01/30 04:10:18;;;;;;;22.58;17.15;;;3.60;99.90;;;;;;5033335;28;20630;-47
2023/01/30 04:12:45;;;;;;;21.20;15.88;;;4.20;99.90;;;;;;5034721;28;20216;-48
2023/01/30 04:15:13;;;;;;;24.58;17.40;;;4.40;99.90;;;;;;5036968;28;20251;-47
2023/01/30 04:17:58;;;;;;;21.02;15.65;;;4.50;99.90;;;;;;5054883;28;20211;-47
2023/01/30 04:20:27;;;;;;;20.88;16.05;;;4.20;99.90;;;;;;5054314;28;20555;-47
2023/01/30 04:22:56;;;;;;;22.70;16.27;;;4.00;99.90;;;;;;5036573;28;20224;-47
2023/01/30 04:25:26;;;;;;;23.10;15.93;;;4.20;99.90;;;;;;5036484;28;20197;-47
2023/01/30 04:27:52;;;;;;;21.38;16.75;;;4.40;99.90;;;;;;5036583;28;20236;-48
2023/01/30 04:30:24;;;;;;;20.90;16.30;;;4.20;99.90;;;;;;5036371;28;20196;-47
2023/01/30 04:32:55;;;;;;;21.70;16.00;;;4.10;99.90;;;;;;5036318;28;20216;-47
2023/01/30 04:35:22;;;;;;;23.27;16.08;;;4.40;99.90;;;;;;5036172;28;20281;-48
2023/01/30 04:37:48;;;;;;;22.10;16.35;;;4.30;99.90;;;;;;5036247;28;20204;-47
2023/01/30 04:40:19;;;;;;;24.65;16.42;;;4.40;99.90;;;;;;5035872;28;20250;-47
2023/01/30 04:42:47;;;;;;;24.55;17.10;;;4.70;99.90;;;;;;5036078;28;20231;-47
2023/01/30 04:45:52;;;;;;;20.63;16.52;;;4.40;99.90;;;;;;5054022;28;20287;-49
2023/01/30 04:48:20;;;;;;;20.63;15.00;;;4.30;99.90;;;;;;5053780;28;20279;-47
2023/01/30 04:50:49;;;;;;;20.73;15.70;;;4.10;99.90;;;;;;5036196;28;20287;-47
2023/01/30 04:53:18;;;;;;;22.77;15.55;;;4.50;99.90;;;;;;5054322;28;20345;-47
2023/01/30 04:55:45;;;;;;;22.25;14.93;;;4.40;99.90;;;;;;5036123;28;20319;-47
2023/01/30 04:58:14;;;;;;;20.15;16.00;;;4.50;99.90;;;;;;5035701;28;20215;-48
2023/01/30 05:00:41;;;;;;;24.88;17.27;;;4.50;99.90;;;;;;5053856;28;20688;-48
2023/01/30 05:03:08;;;;;;;20.85;15.75;;;4.80;99.90;;;;;;5035948;28;20675;-48
2023/01/30 05:05:34;;;;;;;21.55;16.75;;;4.40;99.90;;;;;;5053804;28;20192;-47
2023/01/30 05:08:01;;;;;;;23.63;16.70;;;4.40;99.90;;;;;;5035517;28;20210;-47
2023/01/30 05:10:28;;;;;;;21.85;16.48;;;4.50;99.90;;;;;;5053185;28;20227;-48
2023/01/30 05:12:54;;;;;;;21.60;15.95;;;4.60;99.90;;;;;;5053384;28;20577;-47
2023/01/30 05:15:22;;;;;;;21.35;15.80;;;4.50;99.90;;;;;;5053488;28;20219;-47
2023/01/30 05:17:49;;;;;;;22.50;16.17;;;4.10;99.90;;;;;;5053363;28;20204;-47
2023/01/30 05:20:16;;;;;;;24.90;16.45;;;4.70;99.90;;;;;;5053212;28;20218;-47
2023/01/30 05:22:42;;;;;;;24.52;16.65;;;4.80;99.90;;;;;;5053153;28;20235;-47
2023/01/30 05:25:10;;;;;;;25.95;16.20;;;4.70;99.90;;;;;;5053646;28;20196;-48
2023/01/30 05:27:36;;;;;;;26.67;16.13;;;4.50;99.90;;;;;;5053351;28;20664;-47
2023/01/30 05:30:04;;;;;;;32.13;16.63;;;4.80;99.90;;;;;;5053054;28;20568;-47
2023/01/30 05:32:32;;;;;;;21.55;15.30;;;4.60;99.90;;;;;;5053379;28;20220;-48
2023/01/30 05:34:58;;;;;;;25.63;17.45;;;4.60;99.90;;;;;;5053103;28;20569;-47
2023/01/30 05:37:25;;;;;;;25.40;16.50;;;4.70;99.90;;;;;;5053304;28;20203;-48
2023/01/30 05:39:52;;;;;;;23.95;16.50;;;4.60;99.90;;;;;;5034659;28;20203;-47
2023/01/30 05:42:18;;;;;;;24.30;16.70;;;4.70;99.90;;;;;;5078096;22;20569;-50
2023/01/30 05:44:45;;;;;;;26.02;17.02;;;3.90;99.90;;;;;;5052226;28;20656;-48
2023/01/30 05:47:12;;;;;;;21.85;16.13;;;4.50;99.90;;;;;;5053607;28;20691;-49
2023/01/30 05:49:40;;;;;;;22.50;15.80;;;4.50;99.90;;;;;;5053113;28;20196;-48
2023/01/30 05:52:07;;;;;;;23.02;16.33;;;4.60;99.90;;;;;;5054024;28;20200;-49
2023/01/30 05:54:34;;;;;;;25.95;17.52;;;4.70;99.90;;;;;;5053903;28;20566;-48
2023/01/30 05:57:01;;;;;;;22.17;16.10;;;4.40;99.90;;;;;;5035864;28;20200;-48
2023/01/30 05:59:27;;;;;;;23.90;16.77;;;4.50;99.90;;;;;;5035133;28;20200;-48
2023/01/30 06:01:54;;;;;;;23.88;16.13;;;4.60;99.90;;;;;;5053533;28;20202;-47
2023/01/30 06:04:21;;;;;;;23.17;17.92;;;4.40;99.90;;;;;;5053261;28;20230;-49
2023/01/30 06:06:50;;;;;;;29.40;16.23;;;4.30;99.90;;;;;;5053628;28;20188;-48
2023/01/30 06:09:17;;;;;;;24.15;16.85;;;4.60;99.90;;;;;;5052993;28;20192;-48
2023/01/30 06:11:43;;;;;;;23.08;16.60;;;4.60;99.90;;;;;;5053634;28;20196;-48
2023/01/30 06:14:10;;;;;;;23.08;16.85;;;4.70;99.90;;;;;;5053279;28;20294;-50
2023/01/30 06:16:36;;;;;;;22.85;16.95;;;4.60;99.90;;;;;;5052925;28;20696;-49
2023/01/30 06:19:03;;;;;;;21.83;15.82;;;4.50;99.90;;;;;;5034736;28;20211;-50
2023/01/30 06:21:30;;;;;;;25.75;17.40;;;4.40;99.90;;;;;;5053116;28;20641;-50
2023/01/30 06:23:58;;;;;;;26.48;17.00;;;4.70;99.90;;;;;;5052838;28;20219;-49
2023/01/30 06:26:25;;;;;;;24.70;16.55;;;4.70;99.90;;;;;;5052896;28;20272;-49
2023/01/30 06:28:51;;;;;;;23.27;16.65;;;4.70;99.90;;;;;;5052524;28;20203;-49
2023/01/30 06:31:18;;;;;;;21.75;16.95;;;4.50;99.90;;;;;;5052860;28;20196;-49
2023/01/30 06:33:45;;;;;;;27.73;17.30;;;4.80;99.90;;;;;;5052871;28;20220;-48
2023/01/30 06:36:12;;;;;;;27.77;17.42;;;4.80;99.90;;;;;;5051829;28;20222;-48
2023/01/30 06:38:39;;;;;;;24.52;16.77;;;5.00;99.90;;;;;;5052132;28;20209;-49
2023/01/30 06:41:07;;;;;;;20.92;15.98;;;4.70;99.90;;;;;;5052828;28;20477;-48
2023/01/30 06:43:34;;;;;;;22.00;16.02;;;4.20;99.90;;;;;;5052760;28;20231;-49
2023/01/30 06:46:00;;;;;;;26.05;16.67;;;4.70;99.90;;;;;;5052364;28;20196;-50
2023/01/30 06:48:27;;;;;;;23.13;16.50;;;4.70;99.90;;;;;;5052275;28;20196;-49
2023/01/30 06:50:53;;;;;;;18.02;14.35;;;4.90;99.90;;;;;;5052716;28;20227;-48
2023/01/30 06:53:21;;;;;;;24.90;15.35;;;4.90;99.90;;;;;;5052462;28;20251;-49
2023/01/30 06:55:47;;;;;;;25.05;16.50;;;4.80;99.90;;;;;;5052304;28;20539;-48
2023/01/30 06:58:15;;;;;;;20.20;14.75;;;4.80;99.90;;;;;;5051780;28;20207;-51
2023/01/30 07:00:43;;;;;;;22.23;16.17;;;4.90;99.90;;;;;;5052297;28;20212;-49
2023/01/30 07:03:11;;;;;;;19.52;14.52;;;4.90;99.90;;;;;;5052205;28;20220;-49
2023/01/30 07:05:39;;;;;;;21.55;14.23;;;4.80;99.90;;;;;;5052131;28;20184;-49
2023/01/30 07:08:05;;;;;;;18.30;13.57;;;4.90;99.90;;;;;;5051738;28;20192;-49
2023/01/30 07:10:32;;;;;;;19.70;13.80;;;5.00;99.90;;;;;;5051751;28;20200;-50
2023/01/30 07:12:59;;;;;;;17.45;12.43;;;5.30;99.90;;;;;;5051787;28;20226;-49
2023/01/30 07:15:28;;;;;;;17.40;12.98;;;4.50;99.90;;;;;;5051816;28;20220;-50
2023/01/30 07:17:54;;;;;;;18.53;13.17;;;4.80;99.90;;;;;;5051682;28;20664;-49
2023/01/30 07:20:21;;;;;;;18.60;12.55;;;5.20;99.90;;;;;;5051700;28;20846;-49
2023/01/30 07:22:51;;;;;;;15.60;12.40;;;5.20;99.90;;;;;;5033912;28;20232;-49
2023/01/30 07:25:18;;;;;;;20.30;11.95;;;5.20;99.90;;;;;;5051869;28;20195;-48
2023/01/30 07:27:50;;;;;;;17.97;11.97;;;5.40;99.90;;;;;;5051940;28;20192;-49
2023/01/30 07:30:17;;;;;;;17.00;11.60;;;5.30;99.90;;;;;;5051518;28;20405;-50
2023/01/30 07:32:49;;;;;;;16.47;12.10;;;5.40;99.90;;;;;;5033955;28;20611;-49
2023/01/30 07:35:15;;;;;;;15.40;10.98;;;4.90;99.90;;;;;;5052078;28;20453;-49
2023/01/30 07:37:45;;;;;;;14.52;10.80;;;5.50;99.90;;;;;;5051624;28;20228;-50
2023/01/30 07:40:13;;;;;;;13.55;10.35;;;5.30;99.90;;;;;;5051225;28;20201;-50
2023/01/30 07:42:39;;;;;;;15.37;9.73;;;5.40;99.90;;;;;;5051332;28;20229;-49
2023/01/30 07:45:07;;;;;;;16.92;9.43;;;5.60;99.90;;;;;;5051669;28;20770;-50
2023/01/30 07:47:34;;;;;;;18.38;10.82;;;5.60;99.90;;;;;;5055308;28;20565;-49
2023/01/30 07:50:03;;;;;;;14.43;10.68;;;5.60;99.90;;;;;;5055140;28;20222;-49
2023/01/30 07:52:29;;;;;;;12.82;9.43;;;5.60;99.90;;;;;;5055520;28;20304;-49
2023/01/30 07:54:56;;;;;;;10.98;9.10;;;5.70;99.90;;;;;;5055808;28;20208;-49
2023/01/30 07:57:23;;;;;;;10.87;8.60;;;5.70;99.90;;;;;;5055590;28;20295;-49
2023/01/30 07:59:49;;;;;;;14.03;9.80;;;5.40;99.90;;;;;;5055238;28;20431;-49
2023/01/30 08:02:16;;;;;;;12.50;9.50;;;5.70;99.90;;;;;;5055263;28;20848;-50
2023/01/30 08:04:42;;;;;;;10.05;8.60;;;5.70;99.90;;;;;;5055186;28;20205;-49
2023/01/30 08:07:10;;;;;;;12.73;9.93;;;5.80;99.90;;;;;;5055185;28;20197;-49
2023/01/30 08:09:37;;;;;;;11.73;8.50;;;5.60;99.90;;;;;;5055415;28;20193;-49
2023/01/30 08:12:04;;;;;;;18.80;12.83;;;6.00;99.90;;;;;;5055268;28;20415;-51
2023/01/30 08:14:31;;;;;;;29.57;13.70;;;5.90;99.90;;;;;;5054902;28;20430;-50
2023/01/30 08:16:57;;;;;;;13.13;9.83;;;5.60;99.90;;;;;;5054967;28;20483;-50
2023/01/30 08:19:24;;;;;;;9.40;8.20;;;5.30;99.90;;;;;;5054371;28;20918;-49
2023/01/30 08:21:51;;;;;;;9.60;8.13;;;6.00;99.90;;;;;;5054379;28;20406;-49
2023/01/30 08:24:19;;;;;;;11.70;7.93;;;5.90;99.90;;;;;;5055220;28;20790;-49
2023/01/30 08:26:47;;;;;;;10.53;8.00;;;5.90;99.90;;;;;;5055163;28;20428;-49
2023/01/30 08:29:14;;;;;;;10.23;7.47;;;6.00;99.90;;;;;;5054511;28;20489;-49
2023/01/30 08:31:41;;;;;;;8.73;7.83;;;6.10;99.90;;;;;;5054600;28;20782;-49
2023/01/30 08:34:07;;;;;;;8.77;6.97;;;5.60;99.90;;;;;;5055060;28;20418;-49
2023/01/30 08:36:34;;;;;;;10.20;7.50;;;6.60;99.90;;;;;;5054778;28;20457;-50
2023/01/30 08:39:00;;;;;;;9.87;7.63;;;6.00;99.90;;;;;;5054313;28;20434;-51
2023/01/30 08:41:28;;;;;;;9.87;7.10;;;5.80;99.90;;;;;;5054427;28;20435;-50
2023/01/30 08:43:55;;;;;;;9.70;7.00;;;6.20;99.90;;;;;;5054357;28;20449;-50
2023/01/30 08:46:21;;;;;;;9.73;7.63;;;6.50;99.90;;;;;;5036729;28;20448;-50
2023/01/30 08:48:48;;;;;;;10.10;7.10;;;6.40;99.90;;;;;;5054635;28;20899;-49
2023/01/30 08:51:15;;;;;;;10.47;7.40;;;6.20;99.90;;;;;;5054623;28;20407;-50
2023/01/30 08:53:42;;;;;;;8.33;6.50;;;6.20;99.90;;;;;;5053957;28;20434;-49
2023/01/30 08:56:08;;;;;;;9.43;7.00;;;6.50;99.90;;;;;;5054455;28;20463;-49
2023/01/30 08:58:36;;;;;;;8.97;6.90;;;6.50;99.90;;;;;;5052987;28;20453;-50
2023/01/30 09:01:06;;;;;;;8.60;6.47;;;6.30;99.90;;;;;;5054465;28;20429;-51
2023/01/30 09:03:32;;;;;;;7.40;6.00;;;6.10;99.90;;;;;;5054494;28;20505;-50
2023/01/30 09:05:59;;;;;;;13.77;8.53;;;6.30;99.90;;;;;;5054695;28;20774;-49
2023/01/30 09:08:25;;;;;;;19.10;7.50;;;6.50;99.90;;;;;;5053682;28;20407;-49
2023/01/30 09:10:52;;;;;;;10.90;6.37;;;6.20;99.90;;;;;;5054417;28;20794;-50
2023/01/30 09:13:18;;;;;;;9.53;5.10;;;6.30;99.90;;;;;;5054310;28;20929;-49
2023/01/30 09:15:46;;;;;;;7.03;5.43;;;6.20;99.90;;;;;;5054173;28;20410;-49
2023/01/30 09:18:13;;;;;;;6.63;4.90;;;6.50;99.90;;;;;;5053769;28;20494;-49
2023/01/30 09:20:40;;;;;;;8.03;5.33;;;6.70;99.90;;;;;;5054067;28;20893;-49
2023/01/30 09:23:07;;;;;;;6.70;5.10;;;6.40;99.90;;;;;;5054101;28;20422;-49
2023/01/30 09:25:33;;;;;;;8.13;4.53;;;6.40;99.90;;;;;;5054097;28;20411;-51
2023/01/30 09:28:00;;;;;;;6.17;4.77;;;6.50;99.90;;;;;;5054499;28;20407;-49
2023/01/30 09:30:27;;;;;;;11.70;7.30;;;7.00;99.90;;;;;;5035769;28;20453;-48
2023/01/30 09:32:55;;;;;;;6.53;5.40;;;6.70;99.90;;;;;;5054097;28;20429;-48
2023/01/30 09:35:22;;;;;;;9.23;4.80;;;6.90;99.90;;;;;;5053921;28;20444;-48
2023/01/30 09:37:49;;;;;;;6.20;4.67;;;6.70;99.90;;;;;;5036006;28;20454;-49
2023/01/30 09:40:20;;;;;;;9.40;6.20;;;6.50;99.90;;;;;;5053328;28;20494;-49
2023/01/30 09:43:01;;;;;;;5.90;4.53;;;7.00;99.90;;;;;;5053654;28;20468;-49
2023/01/30 09:45:44;;;;;;;6.00;4.53;;;7.10;99.90;;;;;;5053566;28;20437;-49
2023/01/30 09:48:19;;;;;;;7.47;3.80;;;7.20;99.90;;;;;;5053263;28;20415;-48
2023/01/30 09:51:10;;;;;;;6.40;4.37;;;7.30;99.90;;;;;;5035621;28;20454;-48
2023/01/30 09:53:48;;;;;;;9.90;4.30;;;7.20;99.90;;;;;;5053232;28;20431;-49
2023/01/30 09:56:15;;;;;;;9.67;4.97;;;7.10;99.90;;;;;;5053499;28;20465;-49
2023/01/30 09:58:47;;;;;;;12.00;4.47;;;7.10;99.90;;;;;;5052759;28;20445;-49
2023/01/30 10:01:20;;;;;;;13.30;4.07;;;7.40;99.90;;;;;;5053240;28;20790;-49
2023/01/30 10:04:06;;;;;;;7.37;4.10;;;7.50;99.90;;;;;;5053154;28;20427;-49
2023/01/30 10:06:39;;;;;;;7.77;3.60;;;7.30;99.90;;;;;;5053098;28;20404;-49
2023/01/30 10:09:10;;;;;;;5.57;3.87;;;7.30;99.90;;;;;;5052469;28;20441;-49
2023/01/30 10:11:51;;;;;;;12.20;3.47;;;7.30;99.90;;;;;;5053288;28;20502;-50
2023/01/30 10:14:42;;;;;;;11.60;4.20;;;7.20;99.90;;;;;;5052793;28;20452;-49
2023/01/30 10:17:25;;;;;;;8.47;3.30;;;7.30;99.90;;;;;;5052798;28;20832;-49
2023/01/30 10:20:07;;;;;;;8.10;3.57;;;7.30;99.90;;;;;;5052751;28;20397;-48
2023/01/30 10:22:46;;;;;;;12.10;3.60;;;7.40;99.90;;;;;;5053001;28;20436;-49
2023/01/30 10:25:24;;;;;;;11.40;3.57;;;7.40;99.90;;;;;;5052521;28;20460;-48
2023/01/30 10:27:56;;;;;;;12.37;3.50;;;7.70;99.90;;;;;;5052466;28;20408;-49
2023/01/30 10:30:23;;;;;;;9.13;2.77;;;7.80;99.90;;;;;;5052325;28;20420;-48
2023/01/30 10:32:54;;;;;;;8.40;2.80;;;7.80;99.90;;;;;;5052224;28;20778;-48
2023/01/30 10:35:26;;;;;;;14.23;4.60;;;7.60;99.90;;;;;;5034471;28;20459;-49
2023/01/30 10:37:59;;;;;;;13.27;3.90;;;7.50;99.90;;;;;;5052673;28;20462;-49
2023/01/30 10:40:31;;;;;;;8.37;2.60;;;7.80;99.90;;;;;;5052026;28;20407;-49
2023/01/30 10:43:03;;;;;;;13.93;2.50;;;7.70;99.90;;;;;;5052101;28;20454;-50
2023/01/30 10:45:41;;;;;;;12.43;3.00;;;7.90;99.90;;;;;;5052655;28;20426;-49
2023/01/30 10:48:36;;;;;;;12.37;2.77;;;7.80;99.90;;;;;;5052801;28;20795;-50
2023/01/30 10:51:12;;;;;;;9.43;2.80;;;7.70;99.90;;;;;;5052906;28;20441;-49
2023/01/30 10:53:45;;;;;;;8.13;2.67;;;8.10;99.90;;;;;;5052597;28;20429;-49
2023/01/30 10:56:18;;;;;;;10.30;2.77;;;7.70;99.90;;;;;;5052254;28;20937;-49
2023/01/30 10:58:53;;;;;;;17.53;4.20;;;7.50;99.90;;;;;;5052273;28;20438;-49
2023/01/30 11:01:26;;;;;;;13.20;3.07;;;7.70;99.90;;;;;;5052283;28;20440;-49
2023/01/30 11:03:57;;;;;;;22.33;3.93;;;7.50;99.90;;;;;;5051862;28;20913;-49
2023/01/30 11:06:26;;;;;;;18.23;4.00;;;7.50;99.90;;;;;;5051852;28;20934;-49
2023/01/30 11:08:53;;;;;;;15.63;4.43;;;7.70;99.90;;;;;;5051273;28;20404;-49
2023/01/30 11:11:25;;;;;;;13.40;3.20;;;7.80;99.90;;;;;;5051736;28;20438;-50
2023/01/30 11:14:01;;;;;;;12.10;3.60;;;7.70;99.90;;;;;;5052033;28;21073;-49
2023/01/30 11:16:28;;;;;;;16.00;3.90;;;7.50;99.90;;;;;;5052524;28;20466;-50
2023/01/30 11:18:57;;;;;;;13.30;4.17;;;7.20;99.90;;;;;;5051726;28;20399;-48
2023/01/30 11:21:28;;;;;;;21.20;5.63;;;7.50;99.90;;;;;;5051964;28;20951;-50
2023/01/30 11:23:55;;;;;;;14.90;3.83;;;7.20;99.90;;;;;;5051867;28;20462;-49
2023/01/30 11:26:24;;;;;;;16.47;4.13;;;7.40;99.90;;;;;;5051767;28;20465;-49
2023/01/30 11:28:50;;;;;;;16.73;4.30;;;8.00;99.90;;;;;;5051210;28;20440;-49
2023/01/30 11:31:20;;;;;;;14.93;3.50;;;7.50;99.90;;;;;;5051824;28;20421;-49
2023/01/30 11:34:00;;;;;;;10.70;3.80;;;8.00;99.90;;;;;;5051312;28;20435;-50
2023/01/30 11:36:30;;;;;;;17.23;4.13;;;8.10;99.90;;;;;;5051852;28;20409;-49
2023/01/30 11:38:59;;;;;;;12.70;3.80;;;8.10;99.90;;;;;;5051310;28;20408;-50
2023/01/30 11:41:26;;;;;;;10.07;4.00;;;8.10;99.90;;;;;;5033958;28;20417;-49
2023/01/30 11:44:00;;;;;;;11.37;3.17;;;8.10;99.90;;;;;;5051456;28;20481;-49
2023/01/30 11:46:31;;;;;;;12.87;4.00;;;8.10;99.90;;;;;;5052184;28;20438;-49
2023/01/30 11:49:01;;;;;;;15.50;4.47;;;8.10;99.90;;;;;;5051112;28;20437;-49
2023/01/30 11:51:30;;;;;;;18.90;4.57;;;7.60;99.90;;;;;;5051597;28;20510;-49
2023/01/30 11:54:00;;;;;;;10.10;3.07;;;8.20;99.90;;;;;;5052021;28;20449;-50
2023/01/30 11:56:33;;;;;;;15.87;4.70;;;8.30;99.90;;;;;;5051723;28;20393;-49
2023/01/30 11:59:03;;;;;;;13.53;3.93;;;8.30;99.90;;;;;;5050940;28;20429;-50
2023/01/30 12:01:31;;;;;;;9.20;2.90;;;8.00;99.90;;;;;;5051626;28;20438;-50
2023/01/30 12:03:59;;;;;;;9.37;3.00;;;8.10;99.90;;;;;;5051501;28;20538;-50
2023/01/30 12:06:32;;;;;;;8.63;2.53;;;8.10;99.90;;;;;;5033254;28;20425;-50
2023/01/30 12:08:59;;;;;;;9.50;2.40;;;7.80;99.90;;;;;;5050916;28;20433;-50
2023/01/30 12:11:29;;;;;;;11.57;3.20;;;7.70;99.90;;;;;;5051339;28;20419;-50
2023/01/30 12:14:07;;;;;;;9.40;2.53;;;7.70;99.90;;;;;;5051075;28;20449;-49
2023/01/30 12:16:48;;;;;;;13.93;2.40;;;7.70;99.90;;;;;;5051021;28;20413;-51
2023/01/30 12:19:29;;;;;;;5.93;2.50;;;7.70;99.90;;;;;;5050791;28;20955;-50
2023/01/30 12:22:03;;;;;;;8.20;3.53;;;7.40;99.90;;;;;;5051080;28;20414;-50
2023/01/30 12:24:37;;;;;;;9.20;3.50;;;7.50;99.90;;;;;;5050884;28;20453;-49
2023/01/30 12:27:09;;;;;;;13.33;2.87;;;7.40;99.90;;;;;;5051206;28;20495;-49
2023/01/30 12:29:42;;;;;;;7.43;2.53;;;7.40;99.90;;;;;;5050514;28;20407;-49
2023/01/30 12:32:13;;;;;;;13.13;3.20;;;7.40;99.90;;;;;;5051302;28;20445;-49
2023/01/30 12:34:39;;;;;;;8.57;3.53;;;7.30;99.90;;;;;;5054637;28;20922;-49
2023/01/30 12:37:26;;;;;;;16.13;4.13;;;7.30;99.90;;;;;;5055369;28;20890;-49
2023/01/30 12:40:03;;;;;;;30.73;5.33;;;7.30;99.90;;;;;;5054659;28;20934;-48
2023/01/30 12:42:56;;;;;;;17.37;3.97;;;7.40;99.90;;;;;;5054651;28;20438;-49
2023/01/30 12:45:25;;;;;;;14.60;4.13;;;7.60;99.90;;;;;;5054664;28;20439;-50
2023/01/30 12:48:32;;;;;;;14.63;4.47;;;7.50;99.90;;;;;;5054651;28;20456;-50
2023/01/30 12:51:08;;;;;;;14.73;4.40;;;7.80;99.90;;;;;;5054495;28;20898;-49
2023/01/30 12:53:52;;;;;;;16.43;5.47;;;7.80;99.90;;;;;;5054310;28;20452;-50
2023/01/30 12:56:44;;;;;;;16.47;5.93;;;8.10;99.90;;;;;;5054408;28;20403;-49
2023/01/30 12:59:19;;;;;;;14.40;4.60;;;7.90;99.90;;;;;;5053708;28;20431;-50
2023/01/30 13:02:01;;;;;;;17.90;3.80;;;8.10;99.90;;;;;;5054164;28;20414;-50
2023/01/30 13:04:39;;;;;;;19.23;4.97;;;7.90;99.90;;;;;;5054186;28;20479;-48
2023/01/30 13:07:17;;;;;;;14.90;4.33;;;8.80;99.90;;;;;;5053900;28;20422;-49